createdAt,value
2023-04-12T00:02:07.782Z,98659.47
2023-04-12T00:04:37.476Z,98652.69
2023-04-12T00:07:07.684Z,98665.41
2023-04-12T00:09:39.306Z,98658.91
2023-04-12T00:12:09.014Z,98664.88
2023-04-12T00:14:38.904Z,98672.19
2023-04-12T00:17:08.274Z,98664.84
2023-04-12T00:19:37.897Z,98669.69
2023-04-12T00:22:07.521Z,98668.06
2023-04-12T00:24:36.975Z,98674.03
2023-04-12T00:27:07.357Z,98678.91
2023-04-12T00:29:38.260Z,98686.19
2023-04-12T00:32:07.648Z,98683.75
2023-04-12T00:34:37.173Z,98682.69
2023-04-12T00:37:06.739Z,98684.81
2023-04-12T00:39:36.008Z,98683.50
2023-04-12T00:42:06.421Z,98683.19
2023-04-12T00:44:36.666Z,98688.91
2023-04-12T00:47:07.183Z,98696.44
2023-04-12T00:49:37.180Z,98695.06
2023-04-12T00:52:09.661Z,98704.53
2023-04-12T00:54:39.980Z,98705.88
2023-04-12T00:57:09.751Z,98712.63
2023-04-12T00:59:38.932Z,98707.50
2023-04-12T01:02:09.258Z,98704.28
2023-04-12T01:04:39.112Z,98710.75
2023-04-12T01:10:20.680Z,98725.88
2023-04-12T01:13:27.171Z,98726.44
2023-04-12T01:16:21.961Z,98724.00
2023-04-12T01:18:55.369Z,98731.84
2023-04-12T01:21:52.033Z,98737.50
2023-04-12T01:24:57.228Z,98732.63
2023-04-12T01:27:57.496Z,98726.97
2023-04-12T01:30:29.974Z,98727.75
2023-04-12T01:33:03.386Z,98728.28
2023-04-12T01:35:35.422Z,98734.75
2023-04-12T01:38:07.080Z,98739.06
2023-04-12T01:40:37.379Z,98739.34
2023-04-12T01:43:14.830Z,98744.19
2023-04-12T01:45:44.731Z,98744.44
2023-04-12T01:48:15.091Z,98743.56
2023-04-12T01:51:01.904Z,98749.16
2023-04-12T01:53:53.396Z,98752.63
2023-04-12T01:56:26.123Z,98756.09
2023-04-12T01:58:58.370Z,98752.28
2023-04-12T02:01:30.429Z,98758.13
2023-04-12T02:04:02.143Z,98758.91
2023-04-12T02:06:33.114Z,98757.72
2023-04-12T02:09:05.160Z,98758.44
2023-04-12T02:11:35.909Z,98773.16
2023-04-12T02:14:05.317Z,98772.09
2023-04-12T02:16:35.451Z,98777.94
2023-04-12T02:19:10.164Z,98774.09
2023-04-12T02:21:47.191Z,98786.25
2023-04-12T02:24:17.343Z,98784.53
2023-04-12T02:26:47.446Z,98786.94
2023-04-12T02:29:17.670Z,98788.09
2023-04-12T02:31:49.413Z,98797.94
2023-04-12T02:34:19.119Z,98795.72
2023-04-12T02:36:54.998Z,98802.00
2023-04-12T02:39:24.462Z,98807.69
2023-04-12T02:41:54.738Z,98797.94
2023-04-12T02:44:24.212Z,98809.53
2023-04-12T02:47:16.426Z,98814.38
2023-04-12T02:49:49.208Z,98812.97
2023-04-12T02:52:20.718Z,98815.97
2023-04-12T02:55:02.566Z,98819.50
2023-04-12T02:57:32.411Z,98816.50
2023-04-12T03:00:02.693Z,98820.13
2023-04-12T03:02:42.328Z,98818.59
2023-04-12T03:05:18.682Z,98821.91
2023-04-12T03:07:49.232Z,98820.59
2023-04-12T03:10:22.479Z,98825.22
2023-04-12T03:13:17.769Z,98824.63
2023-04-12T03:15:54.061Z,98837.63
2023-04-12T03:18:24.751Z,98832.47
2023-04-12T03:20:55.182Z,98834.50
2023-04-12T03:23:24.998Z,98842.16
2023-04-12T03:26:09.820Z,98833.41
2023-04-12T03:28:39.418Z,98829.69
2023-04-12T03:31:10.116Z,98833.63
2023-04-12T03:33:45.047Z,98832.72
2023-04-12T03:36:40.632Z,98834.53
2023-04-12T03:39:24.683Z,98841.00
2023-04-12T03:41:55.921Z,98838.69
2023-04-12T03:44:30.247Z,98842.63
2023-04-12T03:47:02.327Z,98838.34
2023-04-12T03:49:39.476Z,98838.25
2023-04-12T03:52:14.353Z,98838.34
2023-04-12T03:54:47.356Z,98838.81
2023-04-12T03:57:24.695Z,98831.94
2023-04-12T03:59:54.577Z,98834.66
2023-04-12T04:02:28.921Z,98832.66
2023-04-12T04:05:00.374Z,98835.09
2023-04-12T04:07:29.933Z,98831.31
2023-04-12T04:10:00.453Z,98840.25
2023-04-12T04:12:35.422Z,98841.28
2023-04-12T04:15:06.136Z,98832.69
2023-04-12T04:17:35.847Z,98837.75
2023-04-12T04:20:06.862Z,98835.53
2023-04-12T04:22:39.390Z,98836.03
2023-04-12T04:25:09.285Z,98838.84
2023-04-12T04:27:45.964Z,98844.66
2023-04-12T04:30:17.453Z,98839.69
2023-04-12T04:32:49.712Z,98836.41
2023-04-12T04:35:22.844Z,98837.28
2023-04-12T04:38:06.880Z,98840.38
2023-04-12T04:40:40.355Z,98834.97
2023-04-12T04:43:15.071Z,98835.41
2023-04-12T04:45:47.332Z,98830.66
2023-04-12T04:48:17.699Z,98834.69
2023-04-12T04:50:47.457Z,98837.00
2023-04-12T04:53:21.362Z,98835.72
2023-04-12T04:55:51.432Z,98830.31
2023-04-12T04:58:21.073Z,98828.38
2023-04-12T05:00:51.297Z,98841.91
2023-04-12T05:03:21.126Z,98838.00
2023-04-12T05:05:52.914Z,98841.69
2023-04-12T05:08:23.554Z,98833.78
2023-04-12T05:10:54.518Z,98836.50
2023-04-12T05:13:27.177Z,98839.25
2023-04-12T05:15:56.861Z,98839.38
2023-04-12T05:18:26.066Z,98839.75
2023-04-12T05:20:55.918Z,98839.06
2023-04-12T05:23:26.110Z,98843.88
2023-04-12T05:25:55.735Z,98835.34
2023-04-12T05:28:27.026Z,98848.06
2023-04-12T05:30:57.023Z,98839.38
2023-04-12T05:33:35.942Z,98838.56
2023-04-12T05:36:07.094Z,98844.53
2023-04-12T05:38:36.912Z,98835.88
2023-04-12T05:41:12.398Z,98842.00
2023-04-12T05:43:42.825Z,98838.19
2023-04-12T05:46:12.974Z,98841.66
2023-04-12T05:48:45.125Z,98839.28
2023-04-12T05:51:15.612Z,98831.31
2023-04-12T05:53:47.401Z,98835.88
2023-04-12T05:56:18.631Z,98836.53
2023-04-12T05:58:49.409Z,98836.78
2023-04-12T06:01:20.878Z,98821.94
2023-04-12T06:03:51.438Z,98825.16
2023-04-12T06:06:21.777Z,98822.50
2023-04-12T06:08:51.302Z,98830.38
2023-04-12T06:11:20.660Z,98820.91
2023-04-12T06:13:50.249Z,98826.63
2023-04-12T06:16:19.556Z,98816.00
2023-04-12T06:18:49.596Z,98817.94
2023-04-12T06:21:19.720Z,98822.03
2023-04-12T06:23:49.062Z,98817.94
2023-04-12T06:26:19.914Z,98809.19
2023-04-12T06:28:50.052Z,98813.97
2023-04-12T06:31:19.871Z,98815.81
2023-04-12T06:33:51.359Z,98804.44
2023-04-12T06:36:21.224Z,98791.84
2023-04-12T06:38:52.476Z,98802.94
2023-04-12T06:41:23.428Z,98791.84
2023-04-12T06:44:01.908Z,98790.53
2023-04-12T06:46:31.880Z,98778.44
2023-04-12T06:49:01.276Z,98785.91
2023-04-12T06:51:31.651Z,98780.06
2023-04-12T06:54:00.801Z,98780.66
2023-04-12T06:56:30.257Z,98767.25
2023-04-12T06:59:00.518Z,98778.66
2023-04-12T07:01:30.824Z,98770.31
2023-04-12T07:04:00.396Z,98776.03
2023-04-12T07:06:30.386Z,98768.91
2023-04-12T07:09:00.088Z,98756.91
2023-04-12T07:11:29.775Z,98756.94
2023-04-12T07:14:01.599Z,98757.03
2023-04-12T07:16:35.161Z,98756.53
2023-04-12T07:19:04.705Z,98748.75
2023-04-12T07:21:34.165Z,98747.56
2023-04-12T07:24:04.959Z,98749.53
2023-04-12T07:26:34.887Z,98741.91
2023-04-12T07:29:04.709Z,98744.66
2023-04-12T07:31:34.207Z,98737.09
2023-04-12T07:34:03.926Z,98729.16
2023-04-12T07:36:33.758Z,98720.78
2023-04-12T07:39:03.223Z,98715.50
2023-04-12T07:41:34.158Z,98712.03
2023-04-12T07:44:03.603Z,98714.25
2023-04-12T07:46:33.332Z,98708.22
2023-04-12T07:49:03.540Z,98706.19
2023-04-12T07:51:33.922Z,98708.38
2023-04-12T07:54:03.381Z,98695.88
2023-04-12T07:56:36.166Z,98692.22
2023-04-12T07:59:05.757Z,98690.59
2023-04-12T08:01:34.876Z,98685.13
2023-04-12T08:04:04.532Z,98681.91
2023-04-12T08:06:35.054Z,98682.09
2023-04-12T08:09:04.674Z,98681.66
2023-04-12T08:11:36.435Z,98678.28
2023-04-12T08:14:06.034Z,98675.13
2023-04-12T08:16:36.062Z,98666.81
2023-04-12T08:19:06.510Z,98665.63
2023-04-12T08:21:36.232Z,98653.81
2023-04-12T08:24:06.342Z,98653.91
2023-04-12T08:26:36.066Z,98652.31
2023-04-12T08:29:05.486Z,98650.28
2023-04-12T08:31:35.834Z,98648.50
2023-04-12T08:34:05.251Z,98643.00
2023-04-12T08:36:34.393Z,98634.38
2023-04-12T08:39:04.665Z,98636.44
2023-04-12T08:41:37.771Z,98623.75
2023-04-12T08:44:08.998Z,98622.84
2023-04-12T08:46:38.636Z,98619.91
2023-04-12T08:49:08.175Z,98626.19
2023-04-12T08:51:38.915Z,98628.84
2023-04-12T08:54:09.100Z,98619.56
2023-04-12T08:56:38.636Z,98614.97
2023-04-12T08:59:08.122Z,98602.38
2023-04-12T09:01:38.826Z,98603.72
2023-04-12T09:04:09.025Z,98597.38
2023-04-12T09:06:38.835Z,98592.25
2023-04-12T09:09:08.344Z,98583.28
2023-04-12T09:11:38.688Z,98576.94
2023-04-12T09:14:28.446Z,98578.28
2023-04-12T09:16:58.345Z,98576.47
2023-04-12T09:19:36.908Z,98575.78
2023-04-12T09:22:06.860Z,98569.38
2023-04-12T09:24:52.799Z,98562.25
2023-04-12T09:27:22.385Z,98558.44
2023-04-12T09:29:55.659Z,98555.81
2023-04-12T09:32:31.200Z,98554.97
2023-04-12T09:35:03.748Z,98551.69
2023-04-12T09:37:36.390Z,98547.25
2023-04-12T09:40:08.996Z,98543.09
2023-04-12T09:42:53.502Z,98540.72
2023-04-12T09:45:26.495Z,98536.97
2023-04-12T09:47:56.652Z,98534.28
2023-04-12T09:50:29.876Z,98533.78
2023-04-12T09:53:01.111Z,98530.63
2023-04-12T09:55:35.689Z,98529.09
2023-04-12T09:58:06.307Z,98528.25
2023-04-12T10:00:37.923Z,98514.72
2023-04-12T10:03:08.785Z,98511.09
2023-04-12T10:05:41.639Z,98513.78
2023-04-12T10:08:14.384Z,98507.50
2023-04-12T10:10:47.923Z,98509.88
2023-04-12T10:13:19.275Z,98503.72
2023-04-12T10:15:52.414Z,98502.84
2023-04-12T10:18:21.163Z,98507.25
2023-04-12T10:20:50.992Z,98495.31
2023-04-12T10:23:22.357Z,98500.84
2023-04-12T10:25:55.269Z,98502.25
2023-04-12T10:28:25.070Z,98489.03
2023-04-12T10:30:59.179Z,98496.84
2023-04-12T10:33:31.759Z,98489.59
2023-04-12T10:36:12.114Z,98487.69
2023-04-12T10:39:11.124Z,98488.16
2023-04-12T10:41:40.753Z,98488.59
2023-04-12T10:44:27.870Z,98484.88
2023-04-12T10:46:57.876Z,98478.38
2023-04-12T10:49:28.236Z,98480.41
2023-04-12T10:52:04.313Z,98477.03
2023-04-12T10:54:38.813Z,98476.69
2023-04-12T10:57:44.465Z,98466.97
2023-04-12T11:00:15.685Z,98466.72
2023-04-12T11:03:13.182Z,98469.97
2023-04-12T11:06:20.052Z,98468.72
2023-04-12T11:09:23.799Z,98465.47
2023-04-12T11:12:19.916Z,98460.00
2023-04-12T11:14:52.151Z,98459.41
2023-04-12T11:17:28.074Z,98461.91
2023-04-12T11:20:00.317Z,98460.13
2023-04-12T11:22:32.926Z,98462.47
2023-04-12T11:25:04.612Z,98455.16
2023-04-12T11:27:35.527Z,98461.16
2023-04-12T11:30:05.435Z,98458.97
2023-04-12T11:32:42.440Z,98461.59
2023-04-12T11:35:12.182Z,98458.44
2023-04-12T11:37:41.474Z,98452.69
2023-04-12T11:40:11.581Z,98454.72
2023-04-12T11:42:42.363Z,98455.09
2023-04-12T11:45:17.939Z,98454.50
2023-04-12T11:47:48.603Z,98451.25
2023-04-12T11:50:33.472Z,98451.75
2023-04-12T11:53:15.637Z,98457.47
2023-04-12T11:55:51.005Z,98454.56
2023-04-12T11:58:25.215Z,98459.59
2023-04-12T12:00:56.380Z,98465.34
2023-04-12T12:03:27.113Z,98458.94
2023-04-12T12:05:57.694Z,98464.28
2023-04-12T12:08:27.779Z,98455.66
2023-04-12T12:11:07.275Z,98461.78
2023-04-12T12:13:56.553Z,98458.84
2023-04-12T12:16:28.993Z,98456.13
2023-04-12T12:18:59.104Z,98462.06
2023-04-12T12:21:28.731Z,98458.88
2023-04-12T12:23:59.706Z,98460.28
2023-04-12T12:26:29.844Z,98463.47
2023-04-12T12:29:03.030Z,98454.19
2023-04-12T12:31:34.089Z,98470.88
2023-04-12T12:34:06.745Z,98463.88
2023-04-12T12:36:39.706Z,98473.56
2023-04-12T12:39:14.162Z,98461.69
2023-04-12T12:41:43.868Z,98465.13
2023-04-12T12:44:13.365Z,98462.66
2023-04-12T12:49:15.390Z,98475.75
2023-04-12T12:51:45.530Z,98471.41
2023-04-12T12:54:19.852Z,98470.09
2023-04-12T12:56:54.990Z,98470.28
2023-04-12T12:59:25.986Z,98474.53
2023-04-12T13:01:55.454Z,98480.22
2023-04-12T13:04:25.421Z,98481.44
2023-04-12T13:06:54.814Z,98478.88
2023-04-12T13:09:23.814Z,98489.34
2023-04-12T13:11:54.051Z,98488.56
2023-04-12T13:14:23.635Z,98492.09
2023-04-12T13:16:53.132Z,98486.50
2023-04-12T13:19:22.562Z,98484.81
2023-04-12T13:21:53.290Z,98480.00
2023-04-12T13:24:23.268Z,98485.81
2023-04-12T13:26:52.956Z,98487.75
2023-04-12T13:29:22.521Z,98487.41
2023-04-12T13:31:52.392Z,98493.03
2023-04-12T13:34:21.798Z,98486.59
2023-04-12T13:36:51.929Z,98491.59
2023-04-12T13:39:21.949Z,98498.66
2023-04-12T13:41:52.002Z,98509.25
2023-04-12T13:44:21.608Z,98505.72
2023-04-12T13:46:51.131Z,98504.91
2023-04-12T13:49:20.278Z,98503.47
2023-04-12T13:51:49.650Z,98508.88
2023-04-12T13:54:19.167Z,98508.88
2023-04-12T13:56:48.751Z,98507.09
2023-04-12T13:59:18.935Z,98510.13
2023-04-12T14:01:48.419Z,98513.53
2023-04-12T14:04:18.142Z,98507.91
2023-04-12T14:06:47.762Z,98520.91
2023-04-12T14:09:31.159Z,98526.69
2023-04-12T14:12:02.564Z,98527.47
2023-04-12T14:14:32.384Z,98514.31
2023-04-12T14:17:02.970Z,98523.63
2023-04-12T14:19:33.080Z,98528.09
2023-04-12T14:22:03.562Z,98534.50
2023-04-12T14:24:34.288Z,98538.34
2023-04-12T14:27:05.372Z,98537.38
2023-04-12T14:29:35.843Z,98536.69
2023-04-12T14:32:05.377Z,98542.63
2023-04-12T14:34:35.637Z,98541.16
2023-04-12T14:37:05.123Z,98540.84
2023-04-12T14:39:34.708Z,98548.63
2023-04-12T14:42:04.892Z,98547.19
2023-04-12T14:44:34.211Z,98550.84
2023-04-12T14:47:03.757Z,98560.75
2023-04-12T14:49:33.639Z,98556.84
2023-04-12T14:52:04.202Z,98559.22
2023-04-12T14:54:33.984Z,98562.72
2023-04-12T14:57:05.426Z,98570.22
2023-04-12T14:59:35.286Z,98571.78
2023-04-12T15:02:05.622Z,98581.16
2023-04-12T15:04:35.207Z,98570.47
2023-04-12T15:07:05.577Z,98575.75
2023-04-12T15:09:35.368Z,98578.28
2023-04-12T15:12:05.431Z,98585.47
2023-04-12T15:14:35.826Z,98591.84
2023-04-12T15:17:05.388Z,98592.13
2023-04-12T15:19:34.663Z,98596.28
2023-04-12T15:22:04.614Z,98599.63
2023-04-12T15:24:34.967Z,98598.94
2023-04-12T15:27:06.331Z,98608.03
2023-04-12T15:29:40.085Z,98606.41
2023-04-12T15:32:10.153Z,98603.50
2023-04-12T15:34:39.602Z,98603.97
2023-04-12T15:37:09.303Z,98607.31
2023-04-12T15:39:38.814Z,98607.94
2023-04-12T15:42:09.494Z,98610.25
2023-04-12T15:44:38.977Z,98614.19
2023-04-12T15:47:11.705Z,98614.00
2023-04-12T15:49:42.223Z,98617.63
2023-04-12T15:52:11.745Z,98613.88
2023-04-12T15:54:44.038Z,98620.13
2023-04-12T15:57:13.593Z,98628.28
2023-04-12T15:59:43.328Z,98618.84
2023-04-12T16:02:16.509Z,98627.09
2023-04-12T16:04:48.546Z,98628.28
2023-04-12T16:07:20.045Z,98632.72
2023-04-12T16:09:50.101Z,98630.13
2023-04-12T16:12:20.184Z,98632.03
2023-04-12T16:14:51.379Z,98640.19
2023-04-12T16:17:22.079Z,98636.47
2023-04-12T16:19:52.189Z,98642.50
2023-04-12T16:22:21.711Z,98637.47
2023-04-12T16:24:51.638Z,98635.94
2023-04-12T16:27:23.493Z,98635.00
2023-04-12T16:29:54.129Z,98632.88
2023-04-12T16:32:23.798Z,98636.78
2023-04-12T16:34:53.152Z,98630.34
2023-04-12T16:37:23.248Z,98639.09
2023-04-12T16:39:53.556Z,98634.03
2023-04-12T16:42:25.232Z,98640.06
2023-04-12T16:44:54.848Z,98643.69
2023-04-12T16:47:25.681Z,98640.44
2023-04-12T16:49:56.299Z,98642.97
2023-04-12T16:52:26.494Z,98644.06
2023-04-12T16:54:55.893Z,98640.84
2023-04-12T16:57:26.135Z,98635.22
2023-04-12T16:59:57.067Z,98633.59
2023-04-12T17:02:27.095Z,98640.44
2023-04-12T17:04:56.851Z,98641.81
2023-04-12T17:07:26.673Z,98642.41
2023-04-12T17:09:57.252Z,98639.19
2023-04-12T17:12:26.547Z,98638.69
2023-04-12T17:14:55.986Z,98641.97
2023-04-12T17:17:25.487Z,98638.16
2023-04-12T17:19:55.572Z,98638.22
2023-04-12T17:22:24.892Z,98648.00
2023-04-12T17:24:54.803Z,98633.91
2023-04-12T17:27:24.367Z,98644.53
2023-04-12T17:29:54.150Z,98639.69
2023-04-12T17:32:23.938Z,98634.84
2023-04-12T17:34:55.962Z,98634.94
2023-04-12T17:37:26.512Z,98635.22
2023-04-12T17:39:56.391Z,98642.88
2023-04-12T17:42:27.494Z,98640.72
2023-04-12T17:44:57.170Z,98637.19
2023-04-12T17:47:27.412Z,98635.88
2023-04-12T17:49:57.667Z,98631.28
2023-04-12T17:52:27.341Z,98628.56
2023-04-12T17:54:56.787Z,98624.00
2023-04-12T17:57:29.052Z,98624.81
2023-04-12T17:59:59.906Z,98622.09
2023-04-12T18:02:30.328Z,98627.53
2023-04-12T18:05:00.717Z,98626.72
2023-04-12T18:07:31.733Z,98626.19
2023-04-12T18:10:03.534Z,98628.91
2023-04-12T18:12:33.345Z,98627.31
2023-04-12T18:15:05.382Z,98615.66
2023-04-12T18:17:34.720Z,98621.06
2023-04-12T18:20:06.574Z,98621.06
2023-04-12T18:22:36.250Z,98614.84
2023-04-12T18:25:06.193Z,98622.69
2023-04-12T18:27:35.752Z,98620.28
2023-04-12T18:30:06.049Z,98619.66
2023-04-12T18:32:36.009Z,98612.41
2023-04-12T18:35:06.124Z,98614.31
2023-04-12T18:37:35.777Z,98618.66
2023-04-12T18:40:08.278Z,98613.81
2023-04-12T18:42:38.044Z,98623.06
2023-04-12T18:45:07.776Z,98613.28
2023-04-12T18:47:40.262Z,98613.00
2023-04-12T18:50:10.215Z,98612.72
2023-04-12T18:52:40.049Z,98606.69
2023-04-12T18:55:10.230Z,98607.50
2023-04-12T18:57:39.878Z,98601.56
2023-04-12T19:00:15.389Z,98598.91
2023-04-12T19:02:46.065Z,98608.97
2023-04-12T19:05:15.838Z,98597.88
2023-04-12T19:07:45.799Z,98599.28
2023-04-12T19:10:15.457Z,98601.78
2023-04-12T19:12:45.937Z,98599.97
2023-04-12T19:15:15.718Z,98599.44
2023-04-12T19:17:45.894Z,98596.22
2023-04-12T19:20:15.867Z,98593.25
2023-04-12T19:22:45.941Z,98593.59
2023-04-12T19:27:46.299Z,98591.72
2023-04-12T19:30:18.192Z,98592.28
2023-04-12T19:32:48.175Z,98593.41
2023-04-12T19:35:17.495Z,98592.88
2023-04-12T19:37:47.164Z,98589.41
2023-04-12T19:40:16.888Z,98587.81
2023-04-12T19:42:47.743Z,98590.59
2023-04-12T19:45:17.714Z,98581.44
2023-04-12T19:47:47.061Z,98581.72
2023-04-12T19:50:18.237Z,98577.59
2023-04-12T19:52:49.874Z,98575.47
2023-04-12T19:55:22.568Z,98581.72
2023-04-12T19:57:52.267Z,98577.16
2023-04-12T20:00:24.002Z,98571.19
2023-04-12T20:02:55.391Z,98576.41
2023-04-12T20:05:25.492Z,98576.72
2023-04-12T20:07:57.032Z,98571.34
2023-04-12T20:10:26.376Z,98570.31
2023-04-12T20:12:56.143Z,98564.38
2023-04-12T20:15:25.763Z,98564.97
2023-04-12T20:17:55.905Z,98562.53
2023-04-12T20:20:25.467Z,98559.59
2023-04-12T20:22:54.675Z,98559.38
2023-04-12T20:25:24.591Z,98551.03
2023-04-12T20:27:54.954Z,98552.63
2023-04-12T20:30:25.398Z,98548.31
2023-04-12T20:32:56.059Z,98554.47
2023-04-12T20:35:25.559Z,98544.97
2023-04-12T20:37:55.126Z,98549.19
2023-04-12T20:40:28.279Z,98551.34
2023-04-12T20:42:57.850Z,98541.00
2023-04-12T20:45:28.368Z,98537.97
2023-04-12T20:47:57.770Z,98540.94
2023-04-12T20:50:27.699Z,98539.84
2023-04-12T20:52:57.406Z,98540.44
2023-04-12T20:55:35.168Z,98537.22
2023-04-12T20:58:05.834Z,98539.38
2023-04-12T21:00:37.188Z,98540.78
2023-04-12T21:03:07.115Z,98537.88
2023-04-12T21:05:36.888Z,98537.63
2023-04-12T21:08:08.674Z,98531.97
2023-04-12T21:10:39.108Z,98528.22
2023-04-12T21:13:08.576Z,98521.50
2023-04-12T21:15:37.875Z,98528.53
2023-04-12T21:18:08.207Z,98519.06
2023-04-12T21:20:37.583Z,98518.25
2023-04-12T21:23:08.047Z,98516.66
2023-04-12T21:25:37.678Z,98518.00
2023-04-12T21:28:08.227Z,98516.69
2023-04-12T21:30:38.257Z,98516.47
2023-04-12T21:33:07.596Z,98511.63
2023-04-12T21:35:36.763Z,98515.72
2023-04-12T21:38:06.108Z,98513.06
2023-04-12T21:40:38.362Z,98516.06
2023-04-12T21:43:09.143Z,98517.72
2023-04-12T21:45:38.612Z,98522.31
2023-04-12T21:48:07.912Z,98517.50
2023-04-12T21:50:38.787Z,98516.69
2023-04-12T21:53:08.474Z,98525.66
2023-04-12T21:55:37.630Z,98523.25
2023-04-12T21:58:07.734Z,98522.47
2023-04-12T22:00:38.030Z,98521.41
2023-04-12T22:03:07.644Z,98519.28
2023-04-12T22:05:37.624Z,98519.28
2023-04-12T22:08:08.765Z,98510.06
2023-04-12T22:10:38.966Z,98500.63
2023-04-12T22:13:11.309Z,98507.63
2023-04-12T22:15:41.744Z,98507.94
2023-04-12T22:18:13.467Z,98500.38
2023-04-12T22:20:43.439Z,98501.50
2023-04-12T22:23:12.822Z,98502.25
2023-04-12T22:25:42.667Z,98490.94
2023-04-12T22:28:13.271Z,98499.63
2023-04-12T22:30:42.784Z,98494.22
2023-04-12T22:33:14.674Z,98496.41
2023-04-12T22:35:44.559Z,98496.44
2023-04-12T22:38:15.805Z,98498.66
2023-04-12T22:40:45.286Z,98494.91
2023-04-12T22:43:19.457Z,98497.88
2023-04-12T22:45:50.271Z,98494.63
2023-04-12T22:48:21.287Z,98491.66
2023-04-12T22:50:51.091Z,98495.75
2023-04-12T22:53:20.442Z,98493.59
2023-04-12T22:55:49.954Z,98494.19
2023-04-12T22:58:19.404Z,98492.88
2023-04-12T23:00:52.276Z,98491.25
2023-04-12T23:03:22.593Z,98491.84
2023-04-12T23:05:52.293Z,98502.94
2023-04-12T23:08:22.248Z,98490.53
2023-04-12T23:10:51.669Z,98494.34
2023-04-12T23:13:21.374Z,98493.00
2023-04-12T23:15:51.328Z,98494.88
2023-04-12T23:18:20.677Z,98498.16
2023-04-12T23:20:52.493Z,98497.09
2023-04-12T23:23:24.635Z,98499.78
2023-04-12T23:25:54.623Z,98499.81
2023-04-12T23:28:27.626Z,98494.97
2023-04-12T23:30:59.217Z,98498.47
2023-04-12T23:33:29.386Z,98499.06
2023-04-12T23:35:59.999Z,98502.00
2023-04-12T23:38:39.720Z,98500.09
2023-04-12T23:41:11.513Z,98502.56
2023-04-12T23:43:41.800Z,98499.63
2023-04-12T23:46:12.680Z,98498.53
2023-04-12T23:48:42.645Z,98500.72
2023-04-12T23:51:11.922Z,98500.97
2023-04-12T23:53:41.742Z,98501.28
2023-04-12T23:56:11.227Z,98514.25
2023-04-12T23:58:40.523Z,98507.53
